createdAt,value
2019-02-15T00:01:23.730Z,2.81
2019-02-15T00:03:52.966Z,2.78
2019-02-15T00:06:22.436Z,2.74
2019-02-15T00:08:51.647Z,2.70
2019-02-15T00:11:21.127Z,2.66
2019-02-15T00:13:50.348Z,2.63
2019-02-15T00:16:20.264Z,2.63
2019-02-15T00:19:08.428Z,2.55
2019-02-15T00:21:56.562Z,2.51
2019-02-15T00:24:26.161Z,2.47
2019-02-15T00:26:55.352Z,2.45
2019-02-15T00:29:24.572Z,2.47
2019-02-15T00:31:54.039Z,2.46
2019-02-15T00:34:23.561Z,2.43
2019-02-15T00:36:53.176Z,2.42
2019-02-15T00:39:22.668Z,2.44
2019-02-15T00:41:51.871Z,2.34
2019-02-15T00:44:21.355Z,2.21
2019-02-15T00:50:15.245Z,2.12
2019-02-15T00:53:03.630Z,2.13
2019-02-15T00:55:51.808Z,2.07
2019-02-15T00:58:28.965Z,2.04
2019-02-15T01:01:17.420Z,2.03
2019-02-15T01:03:51.295Z,2.04
2019-02-15T01:06:39.692Z,2.09
2019-02-15T01:09:28.219Z,2.09
2019-02-15T01:12:16.348Z,2.13
2019-02-15T01:14:45.653Z,2.10
2019-02-15T01:17:14.846Z,2.22
2019-02-15T01:19:44.869Z,2.18
2019-02-15T01:22:14.330Z,2.19
2019-02-15T01:24:43.848Z,2.17
2019-02-15T01:27:31.966Z,2.16
2019-02-15T01:30:20.120Z,2.11
2019-02-15T01:33:27.586Z,2.16
2019-02-15T01:36:08.599Z,2.19
2019-02-15T01:38:57.072Z,2.13
2019-02-15T01:41:45.470Z,2.11
2019-02-15T01:47:31.167Z,2.12
2019-02-15T01:50:19.910Z,2.14
2019-02-15T01:52:49.099Z,2.08
2019-02-15T01:55:18.335Z,2.03
2019-02-15T01:57:47.524Z,1.99
2019-02-15T02:02:57.559Z,1.86
2019-02-15T02:05:27.194Z,1.86
2019-02-15T02:07:56.396Z,1.88
2019-02-15T02:10:25.994Z,1.90
2019-02-15T02:12:55.194Z,1.93
2019-02-15T02:15:24.783Z,1.91
2019-02-15T02:17:53.977Z,1.89
2019-02-15T02:20:23.193Z,1.90
2019-02-15T02:22:52.401Z,1.86
2019-02-15T02:25:22.186Z,1.90
2019-02-15T02:27:51.669Z,1.85
2019-02-15T02:30:21.522Z,1.88
2019-02-15T02:32:50.725Z,1.91
2019-02-15T02:35:21.036Z,1.95
2019-02-15T02:38:02.447Z,1.88
2019-02-15T02:43:06.867Z,1.82
2019-02-15T02:45:36.350Z,1.79
2019-02-15T02:48:06.157Z,1.84
2019-02-15T02:50:35.640Z,1.83
2019-02-15T02:53:05.103Z,1.83
2019-02-15T02:55:34.337Z,1.87
2019-02-15T02:58:03.785Z,1.84
2019-02-15T03:00:34.017Z,1.84
2019-02-15T03:03:04.569Z,1.84
2019-02-15T03:05:34.049Z,1.74
2019-02-15T03:08:03.863Z,1.55
2019-02-15T03:10:33.866Z,1.50
2019-02-15T03:13:03.059Z,1.41
2019-02-15T03:15:32.704Z,1.38
2019-02-15T03:18:01.895Z,1.37
2019-02-15T03:20:31.777Z,1.38
2019-02-15T03:36:59.094Z,1.44
2019-02-15T03:39:47.228Z,1.56
2019-02-15T03:42:16.893Z,1.59
2019-02-15T03:44:46.449Z,1.60
2019-02-15T03:50:16.822Z,1.52
2019-02-15T03:52:46.586Z,1.48
2019-02-15T03:55:16.076Z,1.54
2019-02-15T03:57:45.293Z,1.52
2019-02-15T04:03:09.609Z,1.48
2019-02-15T04:05:38.827Z,1.54
2019-02-15T04:08:08.307Z,1.53
2019-02-15T04:10:37.532Z,1.55
2019-02-15T04:13:06.974Z,1.56
2019-02-15T04:15:36.545Z,1.58
2019-02-15T04:18:06.363Z,1.61
2019-02-15T04:20:35.576Z,1.58
2019-02-15T04:23:05.056Z,1.57
2019-02-15T04:25:34.255Z,1.64
2019-02-15T04:28:03.729Z,1.72
2019-02-15T04:30:33.221Z,1.85
2019-02-15T04:33:02.896Z,1.90
2019-02-15T04:35:32.937Z,1.87
2019-02-15T04:38:02.439Z,1.88
2019-02-15T04:40:31.894Z,1.94
2019-02-15T04:43:01.394Z,1.97
2019-02-15T04:45:31.718Z,1.93
2019-02-15T04:48:00.954Z,1.95
2019-02-15T04:50:30.400Z,1.89
2019-02-15T04:53:02.929Z,1.91
2019-02-15T04:55:31.397Z,1.92
2019-02-15T04:58:01.160Z,1.92
2019-02-15T05:00:30.357Z,1.93
2019-02-15T05:03:00.139Z,1.91
2019-02-15T05:05:29.899Z,1.90
2019-02-15T05:07:59.111Z,1.91
2019-02-15T05:10:28.558Z,1.92
2019-02-15T05:12:58.062Z,1.89
2019-02-15T05:15:27.505Z,1.90
2019-02-15T05:17:57.018Z,1.93
2019-02-15T05:20:26.523Z,1.97
2019-02-15T05:22:56.018Z,1.99
2019-02-15T05:25:25.495Z,1.98
2019-02-15T05:27:55.361Z,2.06
2019-02-15T05:30:25.265Z,2.11
2019-02-15T05:32:55.137Z,2.06
2019-02-15T05:35:24.650Z,2.05
2019-02-15T05:37:53.868Z,1.99
2019-02-15T05:40:23.514Z,2.02
2019-02-15T05:42:53.679Z,2.04
2019-02-15T05:45:23.479Z,2.03
2019-02-15T05:47:52.970Z,2.01
2019-02-15T05:50:22.162Z,1.98
2019-02-15T05:52:52.111Z,1.96
2019-02-15T05:55:21.873Z,1.94
2019-02-15T06:00:36.794Z,1.89
2019-02-15T06:02:58.262Z,1.88
2019-02-15T06:05:28.065Z,1.88
2019-02-15T06:07:57.565Z,1.91
2019-02-15T06:10:27.089Z,1.93
2019-02-15T06:12:56.615Z,1.96
2019-02-15T06:15:25.843Z,1.95
2019-02-15T06:17:55.134Z,2.02
2019-02-15T06:20:24.974Z,1.96
2019-02-15T06:22:54.567Z,1.94
2019-02-15T06:25:24.177Z,1.95
2019-02-15T06:27:53.661Z,1.94
2019-02-15T06:30:23.698Z,1.92
2019-02-15T06:32:53.037Z,1.93
2019-02-15T06:35:22.607Z,1.93
2019-02-15T06:37:52.211Z,1.83
2019-02-15T06:40:22.068Z,1.78
2019-02-15T06:42:52.238Z,1.71
2019-02-15T06:45:25.010Z,1.67
2019-02-15T07:06:40.756Z,1.72
2019-02-15T07:09:12.665Z,1.74
2019-02-15T07:43:47.088Z,3.31
2019-02-15T07:46:16.779Z,3.36
2019-02-15T07:48:46.244Z,3.34
2019-02-15T07:51:15.751Z,3.34
2019-02-15T07:53:45.228Z,3.40
2019-02-15T07:56:14.727Z,3.44
2019-02-15T07:58:44.801Z,3.54
2019-02-15T08:01:14.271Z,3.66
2019-02-15T08:03:43.751Z,3.79
2019-02-15T08:06:13.540Z,3.86
2019-02-15T08:08:43.049Z,3.97
2019-02-15T08:11:12.842Z,4.10
2019-02-15T08:13:42.342Z,4.20
2019-02-15T08:16:11.844Z,4.28
2019-02-15T08:18:41.330Z,4.38
2019-02-15T08:21:10.793Z,4.42
2019-02-15T08:23:40.316Z,4.56
2019-02-15T08:26:10.357Z,4.66
2019-02-15T08:28:39.967Z,4.73
2019-02-15T08:31:09.164Z,4.85
2019-02-15T08:33:38.369Z,4.93
2019-02-15T08:36:07.587Z,5.01
2019-02-15T08:38:36.824Z,5.03
2019-02-15T08:41:06.280Z,5.12
2019-02-15T08:43:35.794Z,5.23
2019-02-15T08:46:05.443Z,5.37
2019-02-15T08:48:36.180Z,5.62
2019-02-15T08:51:06.496Z,6.23
2019-02-15T08:53:36.055Z,6.77
2019-02-15T08:56:05.263Z,7.08
2019-02-15T08:58:35.084Z,7.14
2019-02-15T09:01:04.845Z,6.97
2019-02-15T09:03:53.277Z,6.70
2019-02-15T09:06:22.832Z,6.49
2019-02-15T09:08:52.323Z,6.36
2019-02-15T09:11:21.819Z,6.33
2019-02-15T09:13:51.022Z,6.34
2019-02-15T09:16:20.330Z,6.36
2019-02-15T09:18:49.548Z,6.42
2019-02-15T09:21:19.463Z,6.50
2019-02-15T09:23:49.017Z,6.62
2019-02-15T09:26:18.558Z,6.69
2019-02-15T09:28:51.509Z,6.80
2019-02-15T09:31:20.736Z,6.88
2019-02-15T09:33:50.365Z,7.00
2019-02-15T09:36:19.914Z,7.12
2019-02-15T09:38:49.781Z,7.19
2019-02-15T09:41:19.539Z,7.25
2019-02-15T09:43:48.760Z,7.33
2019-02-15T09:46:20.220Z,7.42
2019-02-15T09:48:49.200Z,7.50
2019-02-15T09:51:18.667Z,7.61
2019-02-15T09:53:48.157Z,7.68
2019-02-15T09:56:17.639Z,7.84
2019-02-15T09:58:46.859Z,7.92
2019-02-15T10:01:16.345Z,8.02
2019-02-15T10:03:46.099Z,8.12
2019-02-15T10:06:15.549Z,8.23
2019-02-15T10:08:45.010Z,8.31
2019-02-15T10:11:14.518Z,8.41
2019-02-15T10:13:44.115Z,8.52
2019-02-15T10:16:13.391Z,8.64
2019-02-15T10:19:01.693Z,8.78
2019-02-15T10:21:30.906Z,8.87
2019-02-15T10:24:00.388Z,8.99
2019-02-15T10:26:29.927Z,9.08
2019-02-15T10:28:59.423Z,9.15
2019-02-15T10:31:29.432Z,9.26
2019-02-15T10:33:58.894Z,9.35
2019-02-15T10:36:28.467Z,9.41
2019-02-15T10:38:58.325Z,9.52
2019-02-15T10:41:27.567Z,9.60
2019-02-15T10:43:57.340Z,9.68
2019-02-15T10:46:26.565Z,9.71
2019-02-15T10:48:56.149Z,9.89
2019-02-15T10:51:25.692Z,9.99
2019-02-15T10:53:55.162Z,10.12
2019-02-15T10:56:24.435Z,10.17
2019-02-15T10:58:53.916Z,10.27
2019-02-15T11:01:23.136Z,10.30
2019-02-15T11:03:52.614Z,10.32
2019-02-15T11:06:22.444Z,10.40
2019-02-15T11:08:51.928Z,10.57
2019-02-15T11:11:21.738Z,10.62
2019-02-15T11:14:10.528Z,10.70
2019-02-15T11:16:47.059Z,10.82
2019-02-15T11:19:10.933Z,10.90
2019-02-15T11:21:40.259Z,11.05
2019-02-15T11:24:10.178Z,11.06
2019-02-15T11:26:39.441Z,11.09
2019-02-15T11:29:08.664Z,11.17
2019-02-15T11:31:38.166Z,11.26
2019-02-15T11:34:07.367Z,11.35
2019-02-15T11:36:36.874Z,11.45
2019-02-15T11:39:07.083Z,11.54
2019-02-15T11:41:36.599Z,11.54
2019-02-15T11:44:05.827Z,11.64
2019-02-15T11:46:35.055Z,11.64
2019-02-15T11:49:04.808Z,11.71
2019-02-15T11:51:34.052Z,11.78
2019-02-15T11:54:03.287Z,11.88
2019-02-15T11:56:32.832Z,11.99
2019-02-15T11:59:02.307Z,12.00
2019-02-15T12:01:31.869Z,12.09
2019-02-15T12:04:01.374Z,12.15
2019-02-15T12:06:31.237Z,12.20
2019-02-15T12:09:00.715Z,12.29
2019-02-15T12:11:30.471Z,12.35
2019-02-15T12:13:59.672Z,12.45
2019-02-15T12:16:28.911Z,12.48
2019-02-15T12:18:58.656Z,12.48
2019-02-15T12:21:28.157Z,12.61
2019-02-15T12:23:57.366Z,12.70
2019-02-15T12:26:26.869Z,12.80
2019-02-15T12:28:56.099Z,12.89
2019-02-15T12:31:27.855Z,13.01
2019-02-15T12:33:57.308Z,12.98
2019-02-15T12:36:26.985Z,13.05
2019-02-15T12:38:56.164Z,13.16
2019-02-15T12:41:25.409Z,13.25
2019-02-15T12:43:54.953Z,13.36
2019-02-15T12:46:43.767Z,13.39
2019-02-15T12:49:13.391Z,13.51
2019-02-15T12:51:42.613Z,13.59
2019-02-15T12:54:12.154Z,13.68
2019-02-15T12:56:41.900Z,13.79
2019-02-15T12:59:12.364Z,13.92
2019-02-15T13:01:41.885Z,13.96
2019-02-15T13:04:11.156Z,14.03
2019-02-15T13:06:43.013Z,14.15
2019-02-15T13:09:11.935Z,14.23
2019-02-15T13:11:41.490Z,14.34
2019-02-15T13:14:11.071Z,14.42
2019-02-15T13:16:40.750Z,14.51
2019-02-15T13:19:10.288Z,14.61
2019-02-15T13:21:41.603Z,14.71
2019-02-15T13:24:11.115Z,14.85
2019-02-15T13:26:40.944Z,14.91
2019-02-15T13:29:10.446Z,14.93
2019-02-15T13:31:40.154Z,15.02
2019-02-15T13:34:09.992Z,15.13
2019-02-15T13:36:39.330Z,15.21
2019-02-15T13:39:09.927Z,15.33
2019-02-15T13:41:40.327Z,15.45
2019-02-15T13:44:10.214Z,15.59
2019-02-15T13:46:39.776Z,15.78
2019-02-15T13:49:09.310Z,16.19
2019-02-15T13:51:38.619Z,16.69
2019-02-15T13:54:08.117Z,17.25
2019-02-15T13:56:40.454Z,17.77
2019-02-15T13:59:09.283Z,18.30
2019-02-15T14:01:38.536Z,19.23
2019-02-15T14:04:07.737Z,20.32
2019-02-15T14:06:37.235Z,21.37
2019-02-15T14:09:07.015Z,22.12
2019-02-15T14:11:36.534Z,22.88
2019-02-15T14:14:05.746Z,23.43
2019-02-15T14:16:35.233Z,23.95
2019-02-15T14:19:04.704Z,24.18
2019-02-15T14:21:43.896Z,24.39
2019-02-15T14:24:05.795Z,24.21
2019-02-15T14:26:35.317Z,24.56
2019-02-15T14:29:04.880Z,24.68
2019-02-15T14:31:34.389Z,24.63
2019-02-15T14:34:04.302Z,24.61
2019-02-15T14:36:33.843Z,24.42
2019-02-15T14:41:53.662Z,24.73
2019-02-15T14:44:23.531Z,24.62
2019-02-15T14:46:52.780Z,24.61
2019-02-15T14:49:22.534Z,24.32
2019-02-15T14:52:10.754Z,24.62
2019-02-15T14:54:39.974Z,24.34
2019-02-15T14:57:09.254Z,24.18
2019-02-15T14:59:39.010Z,24.16
2019-02-15T15:02:09.553Z,23.64
2019-02-15T15:04:40.942Z,23.56
2019-02-15T15:07:11.381Z,23.42
2019-02-15T15:09:41.183Z,23.47
2019-02-15T15:12:11.027Z,23.39
2019-02-15T15:14:40.902Z,23.07
2019-02-15T15:17:10.466Z,23.31
2019-02-15T15:19:40.455Z,22.97
2019-02-15T15:22:09.797Z,23.05
2019-02-15T15:24:39.276Z,23.12
2019-02-15T15:27:08.774Z,22.79
2019-02-15T15:29:39.216Z,22.57
2019-02-15T15:32:08.721Z,22.33
2019-02-15T15:34:38.313Z,21.85
2019-02-15T15:37:16.306Z,21.77
2019-02-15T15:39:57.863Z,21.64
2019-02-15T15:42:27.440Z,21.00
2019-02-15T15:44:56.922Z,19.50
2019-02-15T15:47:26.483Z,17.77
2019-02-15T15:49:56.684Z,16.76
2019-02-15T15:52:26.207Z,16.04
2019-02-15T15:54:55.438Z,15.28
2019-02-15T15:57:24.977Z,14.75
2019-02-15T15:59:54.206Z,14.53
2019-02-15T16:02:24.102Z,14.59
2019-02-15T16:04:53.362Z,14.74
2019-02-15T16:07:22.625Z,14.85
2019-02-15T16:09:51.883Z,14.57
2019-02-15T16:12:21.114Z,14.27
2019-02-15T16:14:50.339Z,13.90
2019-02-15T16:17:19.861Z,13.26
2019-02-15T16:19:49.888Z,12.64
2019-02-15T16:22:20.068Z,12.26
2019-02-15T16:24:49.299Z,11.82
2019-02-15T16:27:18.800Z,11.62
2019-02-15T16:29:48.108Z,11.17
2019-02-15T16:32:17.591Z,11.09
2019-02-15T16:34:47.397Z,11.21
2019-02-15T16:37:16.997Z,11.32
2019-02-15T16:39:46.602Z,11.34
2019-02-15T16:42:15.814Z,11.31
2019-02-15T16:44:45.071Z,11.22
2019-02-15T16:47:14.302Z,11.11
2019-02-15T16:49:43.552Z,10.91
2019-02-15T16:52:12.811Z,10.66
2019-02-15T16:54:42.381Z,10.40
2019-02-15T16:57:12.224Z,10.26
2019-02-15T16:59:41.528Z,10.07
2019-02-15T17:02:11.395Z,9.99
2019-02-15T17:04:40.914Z,9.85
2019-02-15T17:07:10.431Z,9.76
2019-02-15T17:09:39.663Z,9.60
2019-02-15T17:12:08.894Z,9.48
2019-02-15T17:14:38.402Z,9.36
2019-02-15T17:17:07.904Z,9.28
2019-02-15T17:19:56.213Z,9.17
2019-02-15T17:22:26.094Z,9.06
2019-02-15T17:24:55.369Z,8.89
2019-02-15T17:27:25.332Z,8.85
2019-02-15T17:29:55.607Z,8.78
2019-02-15T17:32:25.123Z,8.76
2019-02-15T17:34:54.365Z,8.74
2019-02-15T17:37:23.834Z,8.73
2019-02-15T17:39:53.353Z,8.71
2019-02-15T17:42:22.572Z,8.71
2019-02-15T17:44:52.179Z,8.72
2019-02-15T17:47:21.662Z,8.74
2019-02-15T17:49:51.946Z,8.75
2019-02-15T17:52:21.427Z,8.81
2019-02-15T17:54:50.669Z,8.79
2019-02-15T17:57:19.876Z,8.76
2019-02-15T17:59:49.399Z,8.72
2019-02-15T18:02:18.859Z,8.74
2019-02-15T18:04:48.391Z,8.71
2019-02-15T18:07:39.272Z,8.71
2019-02-15T18:10:09.379Z,8.62
2019-02-15T18:12:38.975Z,8.59
2019-02-15T18:15:27.562Z,8.54
2019-02-15T18:17:56.835Z,8.46
2019-02-15T18:20:26.444Z,8.34
2019-02-15T18:22:55.647Z,8.19
2019-02-15T18:25:44.401Z,8.07
2019-02-15T18:28:13.867Z,7.96
2019-02-15T18:30:43.408Z,7.97
2019-02-15T18:33:12.855Z,7.91
2019-02-15T18:35:42.668Z,7.86
2019-02-15T18:38:54.039Z,7.91
2019-02-15T18:46:14.281Z,7.68
2019-02-15T19:03:51.465Z,7.54
2019-02-15T19:06:48.469Z,7.39
2019-02-15T19:09:19.152Z,7.17
2019-02-15T19:14:42.988Z,6.78
2019-02-15T19:17:12.940Z,6.63
2019-02-15T19:19:42.234Z,6.59
2019-02-15T19:22:12.758Z,6.61
2019-02-15T19:25:03.263Z,6.64
2019-02-15T19:27:33.069Z,6.67
2019-02-15T19:32:46.411Z,6.47
2019-02-15T19:35:37.737Z,6.32
2019-02-15T19:38:07.441Z,6.11
2019-02-15T19:40:36.771Z,6.00
2019-02-15T19:43:06.952Z,5.97
2019-02-15T19:45:36.574Z,5.90
2019-02-15T19:48:06.824Z,5.78
2019-02-15T19:50:37.251Z,5.74
2019-02-15T19:53:07.253Z,5.71
2019-02-15T19:55:36.694Z,5.64
2019-02-15T19:58:05.970Z,5.53
2019-02-15T20:00:35.699Z,5.47
2019-02-15T20:03:05.448Z,5.48
2019-02-15T20:05:35.975Z,5.47
2019-02-15T20:08:05.627Z,5.48
2019-02-15T20:10:35.381Z,5.55
2019-02-15T20:13:05.637Z,5.57
2019-02-15T20:15:35.604Z,5.66
2019-02-15T20:18:04.928Z,5.63
2019-02-15T20:20:34.534Z,5.66
2019-02-15T20:23:04.307Z,5.66
2019-02-15T20:25:33.694Z,5.59
2019-02-15T20:28:03.325Z,5.54
2019-02-15T20:30:32.631Z,5.41
2019-02-15T20:33:02.229Z,5.33
2019-02-15T20:35:32.017Z,5.30
2019-02-15T20:38:01.839Z,5.24
2019-02-15T20:40:31.925Z,5.21
2019-02-15T20:43:01.238Z,5.18
2019-02-15T20:45:30.775Z,5.26
2019-02-15T20:48:00.495Z,5.48
2019-02-15T20:50:29.962Z,5.50
2019-02-15T20:53:18.991Z,5.58
2019-02-15T20:55:48.249Z,5.62
2019-02-15T20:58:17.819Z,5.61
2019-02-15T21:00:47.683Z,5.59
2019-02-15T21:03:17.272Z,5.54
2019-02-15T21:05:46.508Z,5.44
2019-02-15T21:08:16.128Z,5.35
2019-02-15T21:10:54.208Z,5.28
2019-02-15T21:13:20.583Z,5.20
2019-02-15T21:15:48.138Z,5.16
2019-02-15T21:18:17.899Z,5.11
2019-02-15T21:20:47.191Z,5.05
2019-02-15T21:23:16.803Z,4.96
2019-02-15T21:25:46.274Z,4.95
2019-02-15T21:28:16.237Z,4.95
2019-02-15T21:30:45.446Z,4.92
2019-02-15T21:33:15.314Z,4.84
2019-02-15T21:35:44.668Z,4.80
2019-02-15T21:38:13.969Z,4.78
2019-02-15T21:40:43.247Z,4.72
2019-02-15T21:43:12.773Z,4.71
2019-02-15T21:45:42.347Z,4.65
2019-02-15T21:48:11.972Z,4.63
2019-02-15T21:50:41.158Z,4.63
2019-02-15T21:53:30.882Z,4.61
2019-02-15T21:56:00.091Z,4.56
2019-02-15T21:58:29.920Z,4.50
2019-02-15T22:01:01.383Z,4.55
2019-02-15T22:03:30.708Z,4.51
2019-02-15T22:05:59.928Z,4.55
2019-02-15T22:08:29.547Z,4.47
2019-02-15T22:10:59.102Z,4.42
2019-02-15T22:13:28.712Z,4.42
2019-02-15T22:15:58.264Z,4.30
2019-02-15T22:18:28.173Z,4.25
2019-02-15T22:20:57.659Z,4.16
2019-02-15T22:23:27.305Z,4.05
2019-02-15T22:25:56.851Z,3.97
2019-02-15T22:28:26.747Z,3.91
2019-02-15T22:30:56.780Z,3.92
2019-02-15T22:33:26.057Z,3.87
2019-02-15T22:36:02.604Z,3.99
2019-02-15T22:38:32.540Z,3.98
2019-02-15T22:41:21.684Z,3.95
2019-02-15T22:43:50.927Z,3.87
2019-02-15T22:46:20.218Z,3.75
2019-02-15T22:48:49.514Z,3.65
2019-02-15T22:51:19.474Z,3.53
2019-02-15T22:53:49.366Z,3.50
2019-02-15T22:56:19.423Z,3.50
2019-02-15T23:02:03.909Z,3.42
2019-02-15T23:04:33.184Z,3.52
2019-02-15T23:07:02.863Z,3.52
2019-02-15T23:09:32.544Z,3.38
2019-02-15T23:12:04.019Z,3.27
2019-02-15T23:14:33.281Z,3.23
2019-02-15T23:17:02.695Z,3.18
2019-02-15T23:19:32.621Z,3.09
2019-02-15T23:22:02.704Z,3.07
2019-02-15T23:31:47.052Z,2.98
2019-02-15T23:34:17.970Z,3.11
2019-02-15T23:36:48.425Z,3.12
2019-02-15T23:39:17.955Z,3.05
2019-02-15T23:41:48.066Z,3.04
2019-02-15T23:44:18.497Z,2.98
2019-02-15T23:46:48.478Z,2.94
2019-02-15T23:49:17.712Z,2.84
2019-02-15T23:51:47.537Z,2.85
2019-02-15T23:54:17.153Z,3.02
2019-02-15T23:56:46.654Z,3.05
2019-02-15T23:59:16.191Z,3.01
